createdAt,value
2022-12-31T00:00:38.441Z,3.38
2022-12-31T00:04:40.016Z,3.45
2022-12-31T00:08:42.600Z,3.17
2022-12-31T00:12:44.216Z,4.28
2022-12-31T00:16:45.832Z,3.22
2022-12-31T00:20:47.386Z,3.83
2022-12-31T00:24:48.950Z,2.92
2022-12-31T00:28:51.680Z,2.67
2022-12-31T00:32:53.271Z,3.15
2022-12-31T00:36:54.977Z,3.88
2022-12-31T00:40:56.485Z,4.07
2022-12-31T00:44:58.070Z,3.38
2022-12-31T00:48:59.617Z,3.78
2022-12-31T00:53:01.405Z,4.47
2022-12-31T00:57:04.339Z,5.15
2022-12-31T01:01:13.516Z,3.95
2022-12-31T01:05:15.150Z,4.65
2022-12-31T01:09:17.745Z,3.95
2022-12-31T01:13:19.368Z,4.45
2022-12-31T01:17:21.053Z,4.10
2022-12-31T01:21:22.654Z,5.05
2022-12-31T01:25:24.138Z,5.60
2022-12-31T01:29:25.821Z,4.40
2022-12-31T01:33:27.437Z,5.72
2022-12-31T01:37:28.922Z,4.30
2022-12-31T01:41:37.132Z,5.03
2022-12-31T01:45:41.547Z,4.75
2022-12-31T01:49:52.520Z,6.85
2022-12-31T01:53:55.015Z,3.70
2022-12-31T01:58:01.079Z,4.93
2022-12-31T02:02:03.639Z,4.45
2022-12-31T02:06:13.472Z,5.65
2022-12-31T02:10:15.228Z,4.68
2022-12-31T02:14:25.869Z,3.97
2022-12-31T02:18:39.496Z,6.20
2022-12-31T02:22:59.217Z,4.28
2022-12-31T02:27:12.130Z,3.85
2022-12-31T02:31:21.775Z,4.82
2022-12-31T02:35:26.751Z,6.47
2022-12-31T02:39:29.291Z,5.05
2022-12-31T02:43:30.907Z,4.97
2022-12-31T02:48:13.878Z,3.95
2022-12-31T02:52:38.816Z,3.90
2022-12-31T02:56:49.554Z,4.18
2022-12-31T03:01:16.660Z,5.00
2022-12-31T03:05:22.802Z,3.95
2022-12-31T03:13:26.132Z,4.75
2022-12-31T03:17:27.669Z,4.57
2022-12-31T03:21:52.390Z,5.05
2022-12-31T03:25:56.369Z,5.47
2022-12-31T03:29:57.866Z,4.60
2022-12-31T03:33:59.332Z,6.07
2022-12-31T03:38:01.925Z,4.43
2022-12-31T03:42:03.924Z,3.78
2022-12-31T03:46:05.716Z,4.32
2022-12-31T03:50:08.912Z,4.00
2022-12-31T03:54:10.441Z,5.18
2022-12-31T03:58:11.862Z,5.70
2022-12-31T04:02:13.641Z,4.55
2022-12-31T04:06:15.563Z,4.22
2022-12-31T04:10:17.936Z,2.85
2022-12-31T04:14:19.462Z,3.40
2022-12-31T04:18:20.982Z,4.65
2022-12-31T04:22:22.672Z,4.07
2022-12-31T04:26:24.368Z,3.90
2022-12-31T04:30:25.843Z,3.15
2022-12-31T04:34:27.936Z,3.28
2022-12-31T04:38:32.237Z,3.75
2022-12-31T04:42:34.944Z,4.07
2022-12-31T04:46:36.439Z,3.28
2022-12-31T04:50:38.073Z,3.15
2022-12-31T04:54:39.565Z,3.78
2022-12-31T04:58:41.275Z,2.83
2022-12-31T05:02:42.903Z,3.50
2022-12-31T05:06:44.602Z,3.28
2022-12-31T05:10:49.045Z,3.83
2022-12-31T05:14:50.592Z,2.53
2022-12-31T05:18:52.090Z,2.33
2022-12-31T05:22:54.002Z,3.25
2022-12-31T05:26:55.538Z,2.50
2022-12-31T05:30:57.075Z,2.35
2022-12-31T05:34:59.876Z,1.80
2022-12-31T05:39:01.860Z,2.72
2022-12-31T05:43:03.392Z,2.30
2022-12-31T05:47:04.981Z,3.53
2022-12-31T05:51:06.514Z,1.88
2022-12-31T05:55:08.831Z,1.90
2022-12-31T05:59:10.345Z,2.22
2022-12-31T06:03:12.092Z,1.35
2022-12-31T06:07:13.790Z,0.15
2022-12-31T06:11:15.298Z,0.68
2022-12-31T06:15:17.751Z,0.25
2022-12-31T06:19:19.354Z,0.00
2022-12-31T06:23:20.842Z,0.65
2022-12-31T06:27:22.413Z,0.32
2022-12-31T06:31:23.988Z,1.33
2022-12-31T06:35:25.661Z,0.25
2022-12-31T06:39:27.568Z,0.95
2022-12-31T06:43:29.042Z,0.52
2022-12-31T06:47:30.777Z,0.50
2022-12-31T06:51:32.552Z,0.55
2022-12-31T06:55:34.418Z,0.70
2022-12-31T06:59:37.651Z,0.63
2022-12-31T07:04:00.205Z,1.95
2022-12-31T07:08:17.140Z,0.98
2022-12-31T07:12:30.709Z,0.85
2022-12-31T07:16:46.141Z,2.65
2022-12-31T07:20:48.143Z,1.73
2022-12-31T07:24:49.984Z,1.08
2022-12-31T07:29:11.858Z,1.00
2022-12-31T07:33:18.433Z,2.08
2022-12-31T07:37:48.424Z,1.50
2022-12-31T07:42:01.626Z,1.45
2022-12-31T07:46:23.512Z,2.75
2022-12-31T07:50:25.395Z,3.17
2022-12-31T07:54:27.198Z,1.00
2022-12-31T07:58:40.536Z,1.48
2022-12-31T08:03:14.353Z,2.35
2022-12-31T08:07:32.989Z,0.57
2022-12-31T08:11:40.770Z,1.50
2022-12-31T08:15:42.516Z,1.48
2022-12-31T08:19:45.717Z,1.05
2022-12-31T08:24:07.562Z,1.52
2022-12-31T08:28:22.799Z,1.05
2022-12-31T08:32:34.458Z,2.17
2022-12-31T08:36:48.036Z,1.10
2022-12-31T08:41:08.479Z,2.40
2022-12-31T08:45:10.372Z,1.50
2022-12-31T08:49:12.632Z,0.90
2022-12-31T08:53:14.557Z,1.67
2022-12-31T08:57:23.528Z,2.25
2022-12-31T09:01:30.877Z,1.67
2022-12-31T09:06:02.342Z,1.60
2022-12-31T09:10:30.198Z,1.00
2022-12-31T09:14:46.930Z,3.13
2022-12-31T09:18:48.520Z,2.78
2022-12-31T09:22:50.993Z,1.02
2022-12-31T09:27:23.860Z,1.30
2022-12-31T09:31:40.297Z,1.15
2022-12-31T09:35:49.690Z,2.97
2022-12-31T09:39:53.697Z,2.20
2022-12-31T09:44:20.014Z,2.30
2022-12-31T09:48:40.240Z,1.17
2022-12-31T09:53:24.572Z,2.55
2022-12-31T09:57:41.187Z,1.25
2022-12-31T10:01:56.817Z,2.40
2022-12-31T10:06:04.454Z,2.03
2022-12-31T10:10:09.735Z,2.80
2022-12-31T10:14:47.806Z,1.88
2022-12-31T10:19:04.798Z,1.92
2022-12-31T10:23:22.841Z,2.78
2022-12-31T10:27:51.760Z,3.22
2022-12-31T10:31:53.199Z,1.95
2022-12-31T10:36:25.739Z,1.23
2022-12-31T10:41:11.031Z,1.50
2022-12-31T10:45:41.214Z,1.67
2022-12-31T10:50:12.706Z,1.65
2022-12-31T10:54:23.542Z,1.75
2022-12-31T10:58:55.782Z,3.33
2022-12-31T11:03:29.319Z,1.40
2022-12-31T11:07:50.053Z,1.58
2022-12-31T11:12:26.288Z,1.20
2022-12-31T11:16:44.261Z,1.00
2022-12-31T11:21:28.023Z,1.75
2022-12-31T11:25:43.623Z,2.17
2022-12-31T11:30:04.026Z,3.67
2022-12-31T11:34:27.348Z,1.38
2022-12-31T11:38:37.676Z,4.13
2022-12-31T11:43:00.700Z,1.10
2022-12-31T11:47:16.719Z,1.63
2022-12-31T11:51:35.685Z,2.70
2022-12-31T11:55:52.462Z,1.60
2022-12-31T12:00:00.606Z,3.88
2022-12-31T12:04:03.120Z,1.52
2022-12-31T12:08:04.790Z,2.13
2022-12-31T12:12:06.610Z,2.20
2022-12-31T12:16:08.507Z,2.70
2022-12-31T12:20:21.305Z,2.25
2022-12-31T12:24:27.275Z,2.92
2022-12-31T12:28:44.116Z,3.00
2022-12-31T12:32:54.971Z,1.45
2022-12-31T12:36:57.027Z,2.55
2022-12-31T12:41:01.865Z,2.05
2022-12-31T12:45:07.717Z,2.50
2022-12-31T12:49:24.121Z,2.88
2022-12-31T12:54:07.676Z,3.63
2022-12-31T12:58:42.947Z,3.42
2022-12-31T13:03:16.938Z,3.55
2022-12-31T13:07:41.428Z,3.60
2022-12-31T13:12:07.939Z,3.85
2022-12-31T13:16:24.312Z,3.47
2022-12-31T13:20:44.249Z,4.18
2022-12-31T13:25:14.800Z,3.15
2022-12-31T13:29:24.011Z,2.33
2022-12-31T13:33:40.889Z,2.00
2022-12-31T13:37:42.612Z,2.83
2022-12-31T13:41:56.135Z,1.90
2022-12-31T13:46:23.506Z,1.95
2022-12-31T13:50:31.504Z,4.20
2022-12-31T13:54:44.477Z,1.75
2022-12-31T13:58:53.117Z,2.85
2022-12-31T14:03:29.855Z,0.80
2022-12-31T14:07:45.878Z,3.17
2022-12-31T14:12:15.677Z,2.70
2022-12-31T14:16:39.419Z,3.38
2022-12-31T14:20:52.346Z,1.90
2022-12-31T14:24:56.587Z,2.38
2022-12-31T14:29:10.959Z,5.18
2022-12-31T14:33:31.266Z,1.88
2022-12-31T14:37:53.295Z,1.85
2022-12-31T14:42:24.469Z,4.13
2022-12-31T14:46:43.041Z,3.10
2022-12-31T14:50:46.189Z,2.60
2022-12-31T14:55:14.917Z,3.30
2022-12-31T14:59:40.209Z,2.75
2022-12-31T15:03:46.091Z,9.15
2022-12-31T15:07:47.809Z,3.75
2022-12-31T15:12:20.908Z,2.75
2022-12-31T15:16:42.740Z,4.30
2022-12-31T15:20:55.564Z,2.22
2022-12-31T15:24:58.073Z,4.30
2022-12-31T15:29:07.407Z,2.72
2022-12-31T15:33:20.163Z,4.45
2022-12-31T15:37:36.178Z,4.75
2022-12-31T15:42:10.348Z,3.92
2022-12-31T15:46:16.994Z,6.30
2022-12-31T15:50:21.374Z,5.90
2022-12-31T15:54:45.453Z,10.77
2022-12-31T15:58:49.627Z,5.10
2022-12-31T16:02:55.131Z,10.98
2022-12-31T16:07:03.011Z,15.63
2022-12-31T16:11:07.420Z,15.80
2022-12-31T16:15:20.684Z,6.20
2022-12-31T16:19:42.907Z,10.15
2022-12-31T16:23:50.490Z,11.85
2022-12-31T16:27:54.082Z,7.80
2022-12-31T16:31:55.982Z,9.55
2022-12-31T16:35:59.809Z,10.25
2022-12-31T16:40:17.869Z,33.10
2022-12-31T16:44:30.046Z,8.55
2022-12-31T16:48:31.582Z,8.63
2022-12-31T16:52:39.536Z,6.60
2022-12-31T16:56:42.632Z,7.53
2022-12-31T17:00:45.135Z,10.55
2022-12-31T17:04:55.330Z,7.20
2022-12-31T17:08:59.577Z,6.10
2022-12-31T17:13:27.784Z,8.80
2022-12-31T17:17:34.317Z,6.93
2022-12-31T17:21:35.984Z,8.48
2022-12-31T17:25:38.144Z,7.30
2022-12-31T17:29:39.755Z,6.47
2022-12-31T17:33:41.810Z,6.63
2022-12-31T17:37:43.421Z,7.35
2022-12-31T17:41:50.646Z,5.60
2022-12-31T17:45:54.108Z,3.88
2022-12-31T17:49:55.580Z,5.13
2022-12-31T17:54:00.418Z,4.55
2022-12-31T17:58:04.898Z,8.20
2022-12-31T18:02:13.116Z,7.10
2022-12-31T18:06:17.129Z,4.47
2022-12-31T18:10:21.976Z,6.03
2022-12-31T18:14:23.508Z,5.38
2022-12-31T18:18:30.112Z,6.47
2022-12-31T18:22:31.862Z,4.43
2022-12-31T18:26:34.445Z,4.70
2022-12-31T18:30:36.039Z,5.65
2022-12-31T18:34:38.414Z,4.75
2022-12-31T18:38:40.731Z,7.35
2022-12-31T18:42:42.978Z,11.13
2022-12-31T18:46:44.563Z,9.68
2022-12-31T18:50:47.476Z,9.02
2022-12-31T18:54:49.551Z,9.57
2022-12-31T18:58:51.220Z,10.77
2022-12-31T19:02:52.853Z,14.43
2022-12-31T19:06:55.100Z,7.47
2022-12-31T19:10:56.764Z,12.65
2022-12-31T19:14:59.592Z,10.40
2022-12-31T19:19:06.769Z,11.75
2022-12-31T19:23:17.964Z,12.40
2022-12-31T19:27:19.772Z,20.88
2022-12-31T19:31:21.479Z,21.63
2022-12-31T19:35:24.343Z,18.55
2022-12-31T19:39:26.047Z,22.17
2022-12-31T19:43:27.653Z,29.73
2022-12-31T19:47:29.175Z,29.92
2022-12-31T19:51:30.557Z,30.40
2022-12-31T19:55:32.815Z,31.65
2022-12-31T19:59:34.327Z,121.60
2022-12-31T20:03:36.110Z,69.03
2022-12-31T20:07:37.735Z,36.47
2022-12-31T20:11:39.404Z,53.88
2022-12-31T20:15:47.499Z,46.50
2022-12-31T20:19:49.046Z,38.97
2022-12-31T20:23:52.392Z,36.38
2022-12-31T20:27:55.365Z,40.10
2022-12-31T20:31:56.849Z,13.23
2022-12-31T20:36:02.106Z,26.02
2022-12-31T20:40:03.806Z,5.43
2022-12-31T20:44:05.724Z,4.15
2022-12-31T20:48:07.336Z,4.93
2022-12-31T20:52:08.921Z,4.93
2022-12-31T20:56:10.624Z,5.00
2022-12-31T21:00:14.812Z,5.63
2022-12-31T21:04:16.587Z,6.68
2022-12-31T21:08:18.504Z,5.65
2022-12-31T21:12:38.278Z,4.47
2022-12-31T21:16:39.894Z,6.10
2022-12-31T21:20:46.416Z,5.68
2022-12-31T21:24:48.022Z,12.05
2022-12-31T21:28:49.555Z,8.05
2022-12-31T21:32:51.126Z,7.88
2022-12-31T21:36:52.702Z,8.23
2022-12-31T21:40:54.274Z,5.38
2022-12-31T21:44:56.109Z,5.38
2022-12-31T21:48:59.252Z,8.60
2022-12-31T21:53:01.282Z,6.15
2022-12-31T21:57:03.792Z,4.45
2022-12-31T22:01:25.244Z,5.95
2022-12-31T22:05:27.217Z,4.85
2022-12-31T22:09:28.688Z,5.65
2022-12-31T22:13:30.306Z,12.73
2022-12-31T22:17:31.721Z,7.18
2022-12-31T22:21:33.333Z,5.97
2022-12-31T22:25:36.318Z,4.78
2022-12-31T22:29:37.911Z,5.88
2022-12-31T22:33:39.561Z,5.15
2022-12-31T22:37:59.619Z,4.38
2022-12-31T22:42:02.918Z,4.60
2022-12-31T22:46:14.412Z,3.92
2022-12-31T22:50:16.299Z,6.13
2022-12-31T22:54:17.955Z,5.72
2022-12-31T22:58:19.784Z,4.45
2022-12-31T23:02:21.368Z,7.68
2022-12-31T23:06:24.037Z,20.98
2022-12-31T23:10:44.469Z,43.00
2022-12-31T23:15:04.568Z,40.20
2022-12-31T23:19:25.497Z,34.65
2022-12-31T23:23:27.138Z,24.92
2022-12-31T23:27:28.780Z,32.28
2022-12-31T23:31:30.511Z,26.23
2022-12-31T23:35:32.255Z,20.67
2022-12-31T23:39:33.859Z,22.67
2022-12-31T23:43:35.359Z,21.50
2022-12-31T23:47:37.358Z,25.73
2022-12-31T23:51:40.163Z,23.63
2022-12-31T23:55:41.955Z,22.88
2022-12-31T23:59:43.495Z,15.68
